createdAt,value
2019-04-14T00:00:05.382Z,69.43
2019-04-14T00:01:04.355Z,69.54
2019-04-14T00:02:05.203Z,69.05
2019-04-14T00:03:04.424Z,69.15
2019-04-14T00:04:05.231Z,69.74
2019-04-14T00:05:04.071Z,69.47
2019-04-14T00:06:04.827Z,69.37
2019-04-14T00:07:04.078Z,69.78
2019-04-14T00:08:04.626Z,69.26
2019-04-14T00:09:05.271Z,69.37
2019-04-14T00:10:04.992Z,69.37
2019-04-14T00:11:04.135Z,69.02
2019-04-14T00:12:07.079Z,69.47
2019-04-14T00:13:04.629Z,69.05
2019-04-14T00:14:05.220Z,69.26
2019-04-14T00:15:05.655Z,69.02
2019-04-14T00:16:05.309Z,69.26
2019-04-14T00:17:04.255Z,69.05
2019-04-14T00:18:03.956Z,69.15
2019-04-14T00:19:04.427Z,69.47
2019-04-14T00:20:03.911Z,69.26
2019-04-14T00:21:04.465Z,69.26
2019-04-14T00:22:05.187Z,69.57
2019-04-14T00:23:04.389Z,69.78
2019-04-14T00:24:05.137Z,69.68
2019-04-14T00:25:04.364Z,69.47
2019-04-14T00:26:04.946Z,69.47
2019-04-14T00:27:04.226Z,69.47
2019-04-14T00:28:03.825Z,69.68
2019-04-14T00:29:04.642Z,69.89
2019-04-14T00:30:03.815Z,69.89
2019-04-14T00:31:04.484Z,70.30
2019-04-14T00:32:05.076Z,69.89
2019-04-14T00:33:04.160Z,70.09
2019-04-14T00:34:04.985Z,69.68
2019-04-14T00:35:03.921Z,69.89
2019-04-14T00:36:04.476Z,69.68
2019-04-14T00:37:03.724Z,69.89
2019-04-14T00:38:04.215Z,69.99
2019-04-14T00:39:03.691Z,69.89
2019-04-14T00:40:04.054Z,69.99
2019-04-14T00:41:04.775Z,70.20
2019-04-14T00:42:05.386Z,70.30
2019-04-14T00:43:04.848Z,70.40
2019-04-14T00:44:03.656Z,70.30
2019-04-14T00:45:04.792Z,70.82
2019-04-14T00:46:04.345Z,70.54
2019-04-14T00:47:04.932Z,70.61
2019-04-14T00:48:10.773Z,70.82
2019-04-14T00:49:04.958Z,70.92
2019-04-14T00:50:03.709Z,71.34
2019-04-14T00:51:04.790Z,70.40
2019-04-14T00:52:03.670Z,70.40
2019-04-14T00:53:03.634Z,70.82
2019-04-14T00:54:04.389Z,71.34
2019-04-14T00:55:03.521Z,70.92
2019-04-14T00:56:04.074Z,71.44
2019-04-14T00:57:03.503Z,71.37
2019-04-14T00:58:03.849Z,70.95
2019-04-14T00:59:03.478Z,71.13
2019-04-14T01:00:03.858Z,71.48
2019-04-14T01:01:04.725Z,71.17
2019-04-14T01:02:03.497Z,71.37
2019-04-14T01:03:04.683Z,71.03
2019-04-14T01:04:03.500Z,71.06
2019-04-14T01:05:04.446Z,71.69
2019-04-14T01:06:03.402Z,71.17
2019-04-14T01:07:04.362Z,71.06
2019-04-14T01:08:03.423Z,71.20
2019-04-14T01:09:04.270Z,71.20
2019-04-14T01:10:04.001Z,71.37
2019-04-14T01:11:03.349Z,71.17
2019-04-14T01:12:03.910Z,72.20
2019-04-14T01:13:03.342Z,71.69
2019-04-14T01:14:03.725Z,71.37
2019-04-14T01:15:03.297Z,71.48
2019-04-14T01:16:09.818Z,71.58
2019-04-14T01:17:04.803Z,71.89
2019-04-14T01:18:03.621Z,71.69
2019-04-14T01:19:03.272Z,71.51
2019-04-14T01:20:03.635Z,71.37
2019-04-14T01:21:04.496Z,71.82
2019-04-14T01:22:03.272Z,72.13
2019-04-14T01:23:04.162Z,72.45
2019-04-14T01:24:03.286Z,72.13
2019-04-14T01:25:04.259Z,72.20
2019-04-14T01:26:03.182Z,72.45
2019-04-14T01:27:03.966Z,72.24
2019-04-14T01:28:03.159Z,72.24
2019-04-14T01:29:03.673Z,72.55
2019-04-14T01:30:04.472Z,72.34
2019-04-14T01:31:03.395Z,72.24
2019-04-14T01:32:04.421Z,72.89
2019-04-14T01:33:03.305Z,73.07
2019-04-14T01:34:04.053Z,73.00
2019-04-14T01:35:03.197Z,73.52
2019-04-14T01:36:03.954Z,73.32
2019-04-14T01:37:03.105Z,73.52
2019-04-14T01:38:03.791Z,73.73
2019-04-14T01:39:03.052Z,73.32
2019-04-14T01:40:03.353Z,74.04
2019-04-14T01:41:04.148Z,73.94
2019-04-14T01:42:03.005Z,74.46
2019-04-14T01:43:03.850Z,74.15
2019-04-14T01:44:02.986Z,74.25
2019-04-14T01:45:03.640Z,74.04
2019-04-14T01:46:11.638Z,74.04
2019-04-14T01:47:05.155Z,74.04
2019-04-14T01:48:03.848Z,74.25
2019-04-14T01:49:02.951Z,73.94
2019-04-14T01:50:03.779Z,74.04
2019-04-14T01:51:02.915Z,73.94
2019-04-14T01:52:03.613Z,74.56
2019-04-14T01:53:03.228Z,74.77
2019-04-14T01:54:03.925Z,74.91
2019-04-14T01:55:02.967Z,75.22
2019-04-14T01:56:03.509Z,75.12
2019-04-14T01:57:02.865Z,75.01
2019-04-14T01:58:03.244Z,75.22
2019-04-14T01:59:02.814Z,75.53
2019-04-14T02:00:03.274Z,75.43
2019-04-14T02:01:04.025Z,75.74
2019-04-14T02:02:03.027Z,75.74
2019-04-14T02:03:04.046Z,75.74
2019-04-14T02:04:02.982Z,75.74
2019-04-14T02:05:03.896Z,75.85
2019-04-14T02:06:02.745Z,75.95
2019-04-14T02:07:03.827Z,76.06
2019-04-14T02:08:02.735Z,75.74
2019-04-14T02:09:03.272Z,76.16
2019-04-14T02:10:03.907Z,76.37
2019-04-14T02:11:03.013Z,76.26
2019-04-14T02:12:03.847Z,76.40
2019-04-14T02:13:02.840Z,76.40
2019-04-14T02:14:03.681Z,76.30
2019-04-14T02:15:02.965Z,75.98
2019-04-14T02:16:16.443Z,75.95
2019-04-14T02:17:04.911Z,76.82
2019-04-14T02:18:03.239Z,75.98
2019-04-14T02:19:02.657Z,77.23
2019-04-14T02:20:03.329Z,76.47
2019-04-14T02:21:02.580Z,76.47
2019-04-14T02:22:02.791Z,76.51
2019-04-14T02:23:03.852Z,76.30
2019-04-14T02:24:02.596Z,76.61
2019-04-14T02:25:03.576Z,76.47
2019-04-14T02:26:02.538Z,76.82
2019-04-14T02:27:03.518Z,76.61
2019-04-14T02:28:02.510Z,76.82
2019-04-14T02:29:03.619Z,77.45
2019-04-14T02:30:03.925Z,77.03
2019-04-14T02:31:19.477Z,77.03
2019-04-14T02:33:37.064Z,76.82
2019-04-14T02:34:34.194Z,77.13
2019-04-14T02:35:40.463Z,76.92
2019-04-14T02:36:32.230Z,76.72
2019-04-14T02:37:26.673Z,77.66
2019-04-14T02:38:52.635Z,77.34
2019-04-14T02:39:29.396Z,77.55
2019-04-14T02:40:38.848Z,77.76
2019-04-14T02:43:38.100Z,77.86
2019-04-14T02:44:32.444Z,78.17
2019-04-14T02:45:35.464Z,78.17
2019-04-14T02:46:32.277Z,78.21
2019-04-14T02:49:34.901Z,78.69
2019-04-14T02:50:27.204Z,78.69
2019-04-14T02:51:44.984Z,78.94
2019-04-14T02:52:28.210Z,78.80
2019-04-14T02:53:35.169Z,78.73
2019-04-14T02:54:36.071Z,78.94
2019-04-14T02:55:25.229Z,78.73
2019-04-14T02:56:27.928Z,79.05
2019-04-14T02:57:30.506Z,79.05
2019-04-14T02:58:37.828Z,78.31
2019-04-14T02:59:27.037Z,78.83
2019-04-14T03:00:37.152Z,79.25
2019-04-14T03:01:29.565Z,79.25
2019-04-14T03:02:30.424Z,79.05
2019-04-14T03:04:25.816Z,79.67
2019-04-14T03:05:26.509Z,79.63
2019-04-14T03:06:28.566Z,79.32
2019-04-14T03:07:28.606Z,79.77
2019-04-14T03:08:34.360Z,79.67
2019-04-14T03:09:36.366Z,79.74
2019-04-14T03:13:28.732Z,79.74
2019-04-14T03:14:31.199Z,79.63
2019-04-14T03:15:34.868Z,79.63
2019-04-14T03:16:29.645Z,79.53
2019-04-14T03:17:29.169Z,79.94
2019-04-14T03:19:35.305Z,79.70
2019-04-14T03:21:30.725Z,79.63
2019-04-14T03:22:38.931Z,79.43
2019-04-14T03:23:36.448Z,79.53
2019-04-14T03:24:27.397Z,79.39
2019-04-14T03:25:16.696Z,79.28
2019-04-14T03:26:26.960Z,79.49
2019-04-14T03:27:31.213Z,78.97
2019-04-14T03:29:29.297Z,79.18
2019-04-14T03:33:04.624Z,79.28
2019-04-14T03:33:50.810Z,79.08
2019-04-14T03:37:27.153Z,79.28
2019-04-14T03:38:45.130Z,79.77
2019-04-14T03:39:36.920Z,78.83
2019-04-14T03:40:34.297Z,78.83
2019-04-14T03:42:36.075Z,79.14
2019-04-14T03:43:36.949Z,79.08
2019-04-14T03:44:44.904Z,79.14
2019-04-14T03:45:40.592Z,79.56
2019-04-14T03:47:25.551Z,79.46
2019-04-14T03:49:31.816Z,79.60
2019-04-14T03:50:29.211Z,79.35
2019-04-14T03:52:35.016Z,79.66
2019-04-14T03:53:26.288Z,79.56
2019-04-14T03:54:20.149Z,79.46
2019-04-14T03:55:17.898Z,79.56
2019-04-14T03:56:07.352Z,79.56
2019-04-14T03:57:02.552Z,79.46
2019-04-14T03:58:01.563Z,79.87
2019-04-14T03:59:02.002Z,79.77
2019-04-14T04:00:01.514Z,79.87
2019-04-14T04:01:01.920Z,79.56
2019-04-14T04:02:01.508Z,79.46
2019-04-14T04:03:02.087Z,79.77
2019-04-14T04:04:01.491Z,79.98
2019-04-14T04:05:02.205Z,79.98
2019-04-14T04:06:01.452Z,80.08
2019-04-14T04:07:01.865Z,79.87
2019-04-14T04:08:02.712Z,79.56
2019-04-14T04:09:01.906Z,79.83
2019-04-14T04:10:01.409Z,79.66
2019-04-14T04:11:02.044Z,79.66
2019-04-14T04:12:01.385Z,79.66
2019-04-14T04:13:01.950Z,79.87
2019-04-14T04:14:01.368Z,79.77
2019-04-14T04:15:01.944Z,80.19
2019-04-14T04:16:01.341Z,80.08
2019-04-14T04:17:01.587Z,80.19
2019-04-14T04:18:02.594Z,80.19
2019-04-14T04:19:08.276Z,80.08
2019-04-14T04:20:02.640Z,80.29
2019-04-14T04:21:01.280Z,80.19
2019-04-14T04:22:02.126Z,80.08
2019-04-14T04:23:01.270Z,80.29
2019-04-14T04:24:02.148Z,80.26
2019-04-14T04:25:01.244Z,80.40
2019-04-14T04:26:01.844Z,80.57
2019-04-14T04:27:02.375Z,80.50
2019-04-14T04:28:01.591Z,80.40
2019-04-14T04:29:01.199Z,80.29
2019-04-14T04:30:01.697Z,80.67
2019-04-14T04:31:02.346Z,80.60
2019-04-14T04:32:01.431Z,80.40
2019-04-14T04:33:02.307Z,80.60
2019-04-14T04:34:01.167Z,80.36
2019-04-14T04:35:02.221Z,80.15
2019-04-14T04:36:01.164Z,80.26
2019-04-14T04:37:01.799Z,80.40
2019-04-14T04:38:01.129Z,80.50
2019-04-14T04:39:01.780Z,80.36
2019-04-14T04:40:01.081Z,80.60
2019-04-14T04:41:01.574Z,80.50
2019-04-14T04:42:01.083Z,80.57
2019-04-14T04:43:01.283Z,80.46
2019-04-14T04:44:01.070Z,80.19
2019-04-14T04:45:01.792Z,80.60
2019-04-14T04:46:01.014Z,80.40
2019-04-14T04:47:01.241Z,80.36
2019-04-14T04:48:02.308Z,80.67
2019-04-14T04:49:09.578Z,80.77
2019-04-14T04:50:02.411Z,80.60
2019-04-14T04:51:00.953Z,80.60
2019-04-14T04:52:01.825Z,80.57
2019-04-14T04:53:00.939Z,80.77
2019-04-14T04:54:01.678Z,80.77
2019-04-14T04:55:00.941Z,80.57
2019-04-14T04:56:01.478Z,80.67
2019-04-14T04:57:00.904Z,80.77
2019-04-14T04:58:01.384Z,80.77
2019-04-14T04:59:01.148Z,80.77
2019-04-14T05:00:00.857Z,80.77
2019-04-14T05:01:01.420Z,80.98
2019-04-14T05:02:00.833Z,80.67
2019-04-14T05:03:01.421Z,80.88
2019-04-14T05:04:00.823Z,80.67
2019-04-14T05:05:01.292Z,80.57
2019-04-14T05:06:00.839Z,80.43
2019-04-14T05:07:01.482Z,80.46
2019-04-14T05:08:00.772Z,80.67
2019-04-14T05:09:01.333Z,80.67
2019-04-14T05:10:00.759Z,80.63
2019-04-14T05:11:01.101Z,80.77
2019-04-14T05:12:00.744Z,80.57
2019-04-14T05:13:00.788Z,80.67
2019-04-14T05:14:00.709Z,80.67
2019-04-14T05:15:01.057Z,80.63
2019-04-14T05:16:01.867Z,80.88
2019-04-14T05:17:01.450Z,80.84
2019-04-14T05:18:00.666Z,80.77
2019-04-14T05:19:12.272Z,80.88
2019-04-14T05:20:03.037Z,80.98
2019-04-14T05:21:01.662Z,80.88
2019-04-14T05:22:00.697Z,80.77
2019-04-14T05:23:01.583Z,80.94
2019-04-14T05:24:00.701Z,81.09
2019-04-14T05:25:01.471Z,80.98
2019-04-14T05:26:00.670Z,80.84
2019-04-14T05:27:01.385Z,80.74
2019-04-14T05:28:00.579Z,80.63
2019-04-14T05:29:01.415Z,80.63
2019-04-14T05:30:00.533Z,80.74
2019-04-14T05:31:01.318Z,80.63
2019-04-14T05:32:00.512Z,80.84
2019-04-14T05:33:00.892Z,80.63
2019-04-14T05:34:00.515Z,80.63
2019-04-14T05:35:00.884Z,80.70
2019-04-14T05:36:00.487Z,80.39
2019-04-14T05:37:00.672Z,80.60
2019-04-14T05:38:00.446Z,80.39
2019-04-14T05:39:00.435Z,80.39
2019-04-14T05:40:01.484Z,80.49
2019-04-14T05:41:00.495Z,80.39
2019-04-14T05:42:10.734Z,80.18
2019-04-14T05:43:02.482Z,80.18
2019-04-14T05:44:02.029Z,79.97
2019-04-14T05:45:00.393Z,80.08
2019-04-14T05:46:01.331Z,79.97
2019-04-14T05:47:00.349Z,80.04
2019-04-14T05:48:01.067Z,80.04
2019-04-14T05:49:00.318Z,79.72
2019-04-14T05:50:00.919Z,79.52
2019-04-14T05:51:00.329Z,79.62
2019-04-14T05:52:01.291Z,79.72
2019-04-14T05:53:00.281Z,79.31
2019-04-14T05:54:01.145Z,79.31
2019-04-14T05:55:00.260Z,79.17
2019-04-14T05:56:01.337Z,79.10
2019-04-14T05:57:00.249Z,78.86
2019-04-14T05:58:01.338Z,78.96
2019-04-14T05:59:00.225Z,79.06
2019-04-14T06:00:00.205Z,78.65
2019-04-14T06:01:00.352Z,78.34
2019-04-14T06:02:00.208Z,78.13
2019-04-14T06:03:00.182Z,77.99
2019-04-14T06:04:00.375Z,78.20
2019-04-14T06:05:01.435Z,77.78
2019-04-14T06:06:00.156Z,77.58
2019-04-14T06:07:00.131Z,77.99
2019-04-14T06:08:00.142Z,77.68
2019-04-14T06:09:00.106Z,77.54
2019-04-14T06:10:00.097Z,77.54
2019-04-14T06:11:00.091Z,77.58
2019-04-14T06:12:00.087Z,77.33
2019-04-14T06:13:00.098Z,77.33
2019-04-14T06:14:00.067Z,76.92
2019-04-14T06:15:00.051Z,77.12
2019-04-14T06:16:00.034Z,76.81
2019-04-14T06:17:00.035Z,76.89
2019-04-14T06:18:00.009Z,76.61
2019-04-14T06:19:00.020Z,77.33
2019-04-14T06:19:59.990Z,76.37
2019-04-14T06:20:59.975Z,76.57
2019-04-14T06:21:59.973Z,76.89
2019-04-14T06:22:59.984Z,76.06
2019-04-14T06:23:59.982Z,76.26
2019-04-14T06:24:59.938Z,76.37
2019-04-14T06:25:59.935Z,76.68
2019-04-14T06:26:59.912Z,76.02
2019-04-14T06:27:59.908Z,75.81
2019-04-14T06:28:59.896Z,76.47
2019-04-14T06:29:59.909Z,75.50
2019-04-14T06:30:59.934Z,75.81
2019-04-14T06:31:59.872Z,75.81
2019-04-14T06:32:59.851Z,76.02
2019-04-14T06:33:59.839Z,76.02
2019-04-14T06:34:59.834Z,75.92
2019-04-14T06:35:59.848Z,75.92
2019-04-14T06:36:59.815Z,75.92
2019-04-14T06:37:59.789Z,75.92
2019-04-14T06:38:59.783Z,75.98
2019-04-14T06:39:59.769Z,75.81
2019-04-14T06:40:59.764Z,75.81
2019-04-14T06:41:59.787Z,75.46
2019-04-14T06:42:59.753Z,75.46
2019-04-14T06:43:59.730Z,75.46
2019-04-14T06:44:59.714Z,75.09
2019-04-14T06:45:59.708Z,75.40
2019-04-14T06:46:59.702Z,75.50
2019-04-14T06:47:59.715Z,75.36
2019-04-14T06:48:59.675Z,75.57
2019-04-14T06:49:59.666Z,75.46
2019-04-14T06:50:59.669Z,75.15
2019-04-14T06:51:59.654Z,75.46
2019-04-14T06:52:59.661Z,75.15
2019-04-14T06:53:59.654Z,75.46
2019-04-14T06:54:59.617Z,75.46
2019-04-14T06:55:59.619Z,75.36
2019-04-14T06:56:59.590Z,75.36
2019-04-14T06:57:59.611Z,75.46
2019-04-14T06:58:59.580Z,75.57
2019-04-14T06:59:59.554Z,75.46
2019-04-14T07:00:59.554Z,74.81
2019-04-14T07:02:01.814Z,74.95
2019-04-14T07:02:59.531Z,74.60
2019-04-14T07:03:59.542Z,74.81
2019-04-14T07:04:59.511Z,74.50
2019-04-14T07:06:00.232Z,74.50
2019-04-14T07:06:59.493Z,73.57
2019-04-14T07:07:59.496Z,73.15
2019-04-14T07:08:59.463Z,74.19
2019-04-14T07:09:59.467Z,73.77
2019-04-14T07:10:59.446Z,73.74
2019-04-14T07:11:59.481Z,73.74
2019-04-14T07:12:59.422Z,73.71
2019-04-14T07:13:59.414Z,73.63
2019-04-14T07:14:59.461Z,73.50
2019-04-14T07:15:59.402Z,73.71
2019-04-14T07:16:59.375Z,73.60
2019-04-14T07:17:59.362Z,73.19
2019-04-14T07:18:59.351Z,73.19
2019-04-14T07:20:02.253Z,73.19
2019-04-14T07:20:59.357Z,73.29
2019-04-14T07:21:59.327Z,72.88
2019-04-14T07:22:59.310Z,72.67
2019-04-14T07:23:59.311Z,72.53
2019-04-14T07:24:59.313Z,72.64
2019-04-14T07:25:59.286Z,71.91
2019-04-14T07:26:59.302Z,72.02
2019-04-14T07:27:59.259Z,72.02
2019-04-14T07:28:59.256Z,71.91
2019-04-14T07:29:59.239Z,71.70
2019-04-14T07:30:59.234Z,71.91
2019-04-14T07:31:59.260Z,71.15
2019-04-14T07:32:59.215Z,70.87
2019-04-14T07:33:59.199Z,71.47
2019-04-14T07:34:59.195Z,70.95
2019-04-14T07:35:59.174Z,70.12
2019-04-14T07:36:59.192Z,70.01
2019-04-14T07:37:59.156Z,70.32
2019-04-14T07:38:59.151Z,70.29
2019-04-14T07:39:59.136Z,69.57
2019-04-14T07:40:59.126Z,69.67
2019-04-14T07:41:59.124Z,69.43
2019-04-14T07:42:59.128Z,69.47
2019-04-14T07:43:59.087Z,69.23
2019-04-14T07:44:59.083Z,69.02
2019-04-14T07:45:59.079Z,68.82
2019-04-14T07:46:59.085Z,68.71
2019-04-14T07:47:59.094Z,68.61
2019-04-14T07:48:59.034Z,68.51
2019-04-14T07:49:59.026Z,68.51
2019-04-14T07:50:59.029Z,68.61
2019-04-14T07:51:59.018Z,68.51
2019-04-14T07:52:58.993Z,68.61
2019-04-14T07:53:59.014Z,68.48
2019-04-14T07:54:59.012Z,68.48
2019-04-14T07:55:58.967Z,68.37
2019-04-14T07:56:58.956Z,68.27
2019-04-14T07:57:58.967Z,67.65
2019-04-14T07:58:58.953Z,67.96
2019-04-14T07:59:58.925Z,68.27
2019-04-14T08:00:58.915Z,67.44
2019-04-14T08:01:58.940Z,67.54
2019-04-14T08:02:58.898Z,67.10
2019-04-14T08:03:58.894Z,67.30
2019-04-14T08:04:58.890Z,67.30
2019-04-14T08:05:58.866Z,66.89
2019-04-14T08:06:58.850Z,67.03
2019-04-14T08:07:58.845Z,67.21
2019-04-14T08:08:58.858Z,67.24
2019-04-14T08:09:58.821Z,67.13
2019-04-14T08:10:58.814Z,67.41
2019-04-14T08:11:58.807Z,67.72
2019-04-14T08:12:58.781Z,67.82
2019-04-14T08:13:58.786Z,67.30
2019-04-14T08:14:58.796Z,66.89
2019-04-14T08:15:58.751Z,67.10
2019-04-14T08:16:58.749Z,67.30
2019-04-14T08:17:58.735Z,67.00
2019-04-14T08:18:58.724Z,67.00
2019-04-14T08:19:58.752Z,67.10
2019-04-14T08:20:58.737Z,67.10
2019-04-14T08:21:58.693Z,67.30
2019-04-14T08:22:58.688Z,66.89
2019-04-14T08:23:58.685Z,67.21
2019-04-14T08:24:58.654Z,67.51
2019-04-14T08:25:58.715Z,66.79
2019-04-14T08:26:58.650Z,67.17
2019-04-14T08:27:58.658Z,66.24
2019-04-14T08:28:58.720Z,66.45
2019-04-14T08:29:58.603Z,67.27
2019-04-14T08:30:58.692Z,66.76
2019-04-14T08:31:58.582Z,66.97
2019-04-14T08:32:58.597Z,66.21
2019-04-14T08:33:58.566Z,65.91
2019-04-14T08:34:58.558Z,65.28
2019-04-14T08:35:58.541Z,66.42
2019-04-14T08:36:58.580Z,65.88
2019-04-14T08:37:58.519Z,66.18
2019-04-14T08:38:58.515Z,65.98
2019-04-14T08:39:58.506Z,66.08
2019-04-14T08:40:58.498Z,65.84
2019-04-14T08:41:58.505Z,65.95
2019-04-14T08:42:58.479Z,65.22
2019-04-14T08:43:58.456Z,65.12
2019-04-14T08:44:58.451Z,65.12
2019-04-14T08:45:58.443Z,65.22
2019-04-14T08:46:58.448Z,65.40
2019-04-14T08:47:58.418Z,65.33
2019-04-14T08:48:58.401Z,64.47
2019-04-14T08:49:58.395Z,63.96
2019-04-14T08:50:58.388Z,64.27
2019-04-14T08:51:58.388Z,63.75
2019-04-14T08:52:58.374Z,64.09
2019-04-14T08:53:58.362Z,64.27
2019-04-14T08:54:58.338Z,64.06
2019-04-14T08:55:58.327Z,63.54
2019-04-14T08:56:58.320Z,64.17
2019-04-14T08:57:58.353Z,63.54
2019-04-14T08:58:58.299Z,63.52
2019-04-14T08:59:58.297Z,63.21
2019-04-14T09:00:58.285Z,63.00
2019-04-14T09:01:58.282Z,63.82
2019-04-14T09:02:58.282Z,63.34
2019-04-14T09:03:58.252Z,63.85
2019-04-14T09:04:58.262Z,64.27
2019-04-14T09:05:58.215Z,63.93
2019-04-14T09:06:58.212Z,64.54
2019-04-14T09:07:58.198Z,64.03
2019-04-14T09:08:58.213Z,63.93
2019-04-14T09:09:58.199Z,64.34
2019-04-14T09:10:58.178Z,64.14
2019-04-14T09:11:58.178Z,64.14
2019-04-14T09:12:58.157Z,63.93
2019-04-14T09:13:58.159Z,64.99
2019-04-14T09:14:58.128Z,65.40
2019-04-14T09:15:58.134Z,64.99
2019-04-14T09:16:58.112Z,64.78
2019-04-14T09:17:58.089Z,64.89
2019-04-14T09:19:07.432Z,65.19
2019-04-14T09:19:59.084Z,64.78
2019-04-14T09:20:58.065Z,65.30
2019-04-14T09:21:58.049Z,63.75
2019-04-14T09:22:58.031Z,63.96
2019-04-14T09:23:58.045Z,64.37
2019-04-14T09:24:58.039Z,64.68
2019-04-14T09:25:58.000Z,63.54
2019-04-14T09:26:57.990Z,64.24
2019-04-14T09:27:57.978Z,63.62
2019-04-14T09:28:57.970Z,63.82
2019-04-14T09:29:57.960Z,63.52
2019-04-14T09:30:57.960Z,63.31
2019-04-14T09:31:57.950Z,63.31
2019-04-14T09:32:57.933Z,63.10
2019-04-14T09:33:57.920Z,63.00
2019-04-14T09:34:57.901Z,63.10
2019-04-14T09:35:57.918Z,62.59
2019-04-14T09:36:57.880Z,62.87
2019-04-14T09:37:57.892Z,61.98
2019-04-14T09:38:57.877Z,62.07
2019-04-14T09:39:57.859Z,62.70
2019-04-14T09:40:57.841Z,62.18
2019-04-14T09:41:57.863Z,62.49
2019-04-14T09:42:57.901Z,62.70
2019-04-14T09:43:57.801Z,62.79
2019-04-14T09:44:57.804Z,62.38
2019-04-14T09:45:57.795Z,62.18
2019-04-14T09:46:57.768Z,62.70
2019-04-14T09:47:57.785Z,61.84
2019-04-14T09:48:57.748Z,61.22
2019-04-14T09:49:57.735Z,60.94
2019-04-14T09:51:04.600Z,61.35
2019-04-14T09:51:58.710Z,61.56
2019-04-14T09:52:57.702Z,61.80
2019-04-14T09:53:57.714Z,61.90
2019-04-14T09:54:57.686Z,61.59
2019-04-14T09:55:57.675Z,61.41
2019-04-14T09:56:57.676Z,62.75
2019-04-14T09:57:57.650Z,62.65
2019-04-14T09:58:57.663Z,62.85
2019-04-14T09:59:57.627Z,63.27
2019-04-14T10:00:57.634Z,63.47
2019-04-14T10:01:57.601Z,63.06
2019-04-14T10:02:57.613Z,63.37
2019-04-14T10:03:57.577Z,63.57
2019-04-14T10:04:57.583Z,63.68
2019-04-14T10:05:57.561Z,63.37
2019-04-14T10:06:57.580Z,63.47
2019-04-14T10:07:57.541Z,63.78
2019-04-14T10:08:57.525Z,63.37
2019-04-14T10:09:57.542Z,64.09
2019-04-14T10:10:57.507Z,63.47
2019-04-14T10:11:57.499Z,63.57
2019-04-14T10:12:57.479Z,63.68
2019-04-14T10:13:57.477Z,63.47
2019-04-14T10:14:57.460Z,63.57
2019-04-14T10:15:57.474Z,64.09
2019-04-14T10:16:57.456Z,63.57
2019-04-14T10:17:57.436Z,63.68
2019-04-14T10:18:57.440Z,63.57
2019-04-14T10:19:57.415Z,64.27
2019-04-14T10:20:57.422Z,63.99
2019-04-14T10:21:57.403Z,64.17
2019-04-14T10:22:57.370Z,63.34
2019-04-14T10:23:57.365Z,64.27
2019-04-14T10:24:57.382Z,63.96
2019-04-14T10:25:57.339Z,63.96
2019-04-14T10:26:57.355Z,65.06
2019-04-14T10:27:57.331Z,64.75
2019-04-14T10:28:57.312Z,65.16
2019-04-14T10:29:57.301Z,64.96
2019-04-14T10:30:57.283Z,65.37
2019-04-14T10:31:57.279Z,65.89
2019-04-14T10:32:57.286Z,66.19
2019-04-14T10:33:57.257Z,67.15
2019-04-14T10:34:57.248Z,68.70
2019-04-14T10:35:57.234Z,70.14
2019-04-14T10:36:57.217Z,69.45
2019-04-14T10:37:57.240Z,71.00
2019-04-14T10:38:57.200Z,71.72
2019-04-14T10:39:57.187Z,72.75
2019-04-14T10:40:57.180Z,73.05
2019-04-14T10:41:57.171Z,72.23
2019-04-14T10:42:57.168Z,72.64
2019-04-14T10:43:57.180Z,72.85
2019-04-14T10:44:57.131Z,73.05
2019-04-14T10:45:57.120Z,73.36
2019-04-14T10:46:57.116Z,73.78
2019-04-14T10:47:57.108Z,73.40
2019-04-14T10:48:57.095Z,74.02
2019-04-14T10:49:57.131Z,74.43
2019-04-14T10:50:57.064Z,75.05
2019-04-14T10:51:57.067Z,75.09
2019-04-14T10:52:57.047Z,74.15
2019-04-14T10:53:57.039Z,74.67
2019-04-14T10:54:57.018Z,74.98
2019-04-14T10:55:57.035Z,75.05
2019-04-14T10:56:57.005Z,75.39
2019-04-14T10:57:56.987Z,75.46
2019-04-14T10:58:56.982Z,75.46
2019-04-14T10:59:56.974Z,75.32
2019-04-14T11:00:56.984Z,74.80
2019-04-14T11:01:56.942Z,75.32
2019-04-14T11:02:56.945Z,75.32
2019-04-14T11:03:56.939Z,75.22
2019-04-14T11:04:56.916Z,75.18
2019-04-14T11:05:56.923Z,74.57
2019-04-14T11:06:56.890Z,73.33
2019-04-14T11:07:56.873Z,72.81
2019-04-14T11:08:56.874Z,73.23
2019-04-14T11:09:56.858Z,72.92
2019-04-14T11:10:56.856Z,73.23
2019-04-14T11:11:56.852Z,74.16
2019-04-14T11:12:56.820Z,73.33
2019-04-14T11:13:56.823Z,75.49
2019-04-14T11:14:56.840Z,75.49
2019-04-14T11:15:56.790Z,76.11
2019-04-14T11:16:56.799Z,75.77
2019-04-14T11:17:56.811Z,75.08
2019-04-14T11:18:56.772Z,74.67
2019-04-14T11:19:56.743Z,74.16
2019-04-14T11:20:56.734Z,75.08
2019-04-14T11:21:56.753Z,75.08
2019-04-14T11:23:03.182Z,75.08
2019-04-14T11:23:57.712Z,75.56
2019-04-14T11:24:56.690Z,76.70
2019-04-14T11:25:56.676Z,75.01
2019-04-14T11:26:56.672Z,75.42
2019-04-14T11:27:56.730Z,75.12
2019-04-14T11:28:56.651Z,76.25
2019-04-14T11:29:56.629Z,73.88
2019-04-14T11:30:56.641Z,73.06
2019-04-14T11:31:56.638Z,72.75
2019-04-14T11:32:56.608Z,72.78
2019-04-14T11:33:56.583Z,73.16
2019-04-14T11:34:56.583Z,73.81
2019-04-14T11:35:56.563Z,74.43
2019-04-14T11:36:56.571Z,74.60
2019-04-14T11:37:56.577Z,73.36
2019-04-14T11:38:56.548Z,72.44
2019-04-14T11:39:56.543Z,72.37
2019-04-14T11:40:56.515Z,73.26
2019-04-14T11:41:56.509Z,73.81
2019-04-14T11:42:56.500Z,75.12
2019-04-14T11:43:56.507Z,73.16
2019-04-14T11:44:56.475Z,73.47
2019-04-14T11:45:56.479Z,73.26
2019-04-14T11:46:56.447Z,72.44
2019-04-14T11:47:56.430Z,72.37
2019-04-14T11:48:56.462Z,73.19
2019-04-14T11:49:56.425Z,73.91
2019-04-14T11:50:56.393Z,73.88
2019-04-14T11:51:56.395Z,74.80
2019-04-14T11:52:56.378Z,74.40
2019-04-14T11:53:56.369Z,74.36
2019-04-14T11:54:56.384Z,74.43
2019-04-14T11:55:56.337Z,74.95
2019-04-14T11:56:56.338Z,73.30
2019-04-14T11:57:56.337Z,71.75
2019-04-14T11:58:56.905Z,73.27
2019-04-14T11:59:56.294Z,73.06
2019-04-14T12:00:56.301Z,72.92
2019-04-14T12:01:56.306Z,71.48
2019-04-14T12:02:56.279Z,71.04
2019-04-14T12:03:56.257Z,71.38
2019-04-14T12:04:56.246Z,72.00
2019-04-14T12:05:56.262Z,73.02
2019-04-14T12:06:56.221Z,71.89
2019-04-14T12:07:56.216Z,68.91
2019-04-14T12:08:56.224Z,68.61
2019-04-14T12:09:56.197Z,68.81
2019-04-14T12:10:56.199Z,69.64
2019-04-14T12:11:56.187Z,68.02
2019-04-14T12:12:56.157Z,68.95
2019-04-14T12:13:56.159Z,68.85
2019-04-14T12:14:56.143Z,69.09
2019-04-14T12:15:56.123Z,69.09
2019-04-14T12:16:56.129Z,69.05
2019-04-14T12:17:56.111Z,69.18
2019-04-14T12:18:56.111Z,69.49
2019-04-14T12:19:56.098Z,70.21
2019-04-14T12:20:56.058Z,70.76
2019-04-14T12:22:07.668Z,71.28
2019-04-14T12:22:57.130Z,70.86
2019-04-14T12:23:56.030Z,72.47
2019-04-14T12:24:56.025Z,71.45
2019-04-14T12:26:05.273Z,72.61
2019-04-14T12:26:57.020Z,73.91
2019-04-14T12:27:55.990Z,73.30
2019-04-14T12:28:55.977Z,72.38
2019-04-14T12:29:56.694Z,71.96
2019-04-14T12:30:55.966Z,72.06
2019-04-14T12:31:55.963Z,72.00
2019-04-14T12:32:55.962Z,73.33
2019-04-14T12:33:55.923Z,74.33
2019-04-14T12:34:55.905Z,75.04
2019-04-14T12:35:55.894Z,74.74
2019-04-14T12:36:55.889Z,74.57
2019-04-14T12:37:55.893Z,75.18
2019-04-14T12:38:55.892Z,75.25
2019-04-14T12:39:55.859Z,75.39
2019-04-14T12:40:57.766Z,75.08
2019-04-14T12:41:55.832Z,75.70
2019-04-14T12:42:55.823Z,75.39
2019-04-14T12:43:55.808Z,76.42
2019-04-14T12:44:55.820Z,76.01
2019-04-14T12:45:55.790Z,76.52
2019-04-14T12:46:55.815Z,76.62
2019-04-14T12:47:55.767Z,75.18
2019-04-14T12:48:55.759Z,75.59
2019-04-14T12:49:55.765Z,76.42
2019-04-14T12:50:55.734Z,75.35
2019-04-14T12:51:55.754Z,75.39
2019-04-14T12:52:55.710Z,75.73
2019-04-14T12:53:55.713Z,76.42
2019-04-14T12:54:55.708Z,76.21
2019-04-14T12:55:55.678Z,76.45
2019-04-14T12:56:55.674Z,75.73
2019-04-14T12:57:55.670Z,77.07
2019-04-14T12:58:55.665Z,77.17
2019-04-14T12:59:55.724Z,77.03
2019-04-14T13:00:55.618Z,76.42
2019-04-14T13:01:55.612Z,76.11
2019-04-14T13:02:55.606Z,77.17
2019-04-14T13:03:55.598Z,75.94
2019-04-14T13:04:55.586Z,77.89
2019-04-14T13:05:55.632Z,76.31
2019-04-14T13:06:55.557Z,76.86
2019-04-14T13:07:55.551Z,75.84
2019-04-14T13:08:55.542Z,75.94
2019-04-14T13:09:55.523Z,76.86
2019-04-14T13:10:55.524Z,77.58
2019-04-14T13:11:55.501Z,76.35
2019-04-14T13:12:55.493Z,76.07